sensor_id;sensor_type;location;lat;lon;timestamp;P1;durP1;ratioP1;P2;durP2;ratioP2
15889;SDS011;8043;49.388;12.128;2023-02-28T00:02:09;1.40;;;1.33;;
15889;SDS011;8043;49.388;12.128;2023-02-28T00:07:11;4.57;;;2.20;;
15889;SDS011;8043;49.388;12.128;2023-02-28T00:12:14;3.93;;;1.57;;
15889;SDS011;8043;49.388;12.128;2023-02-28T00:17:16;1.63;;;1.50;;
15889;SDS011;8043;49.388;12.128;2023-02-28T00:22:23;1.43;;;1.33;;
15889;SDS011;8043;49.388;12.128;2023-02-28T00:27:25;4.07;;;1.73;;
15889;SDS011;8043;49.388;12.128;2023-02-28T00:32:27;2.40;;;2.00;;
15889;SDS011;8043;49.388;12.128;2023-02-28T00:37:30;4.23;;;1.70;;
15889;SDS011;8043;49.388;12.128;2023-02-28T00:42:33;1.70;;;1.20;;
15889;SDS011;8043;49.388;12.128;2023-02-28T00:47:35;1.93;;;1.67;;
15889;SDS011;8043;49.388;12.128;2023-02-28T00:52:37;1.63;;;1.10;;
15889;SDS011;8043;49.388;12.128;2023-02-28T00:57:40;1.20;;;1.10;;
15889;SDS011;8043;49.388;12.128;2023-02-28T01:02:42;3.13;;;1.90;;
15889;SDS011;8043;49.388;12.128;2023-02-28T01:07:44;1.80;;;1.50;;
15889;SDS011;8043;49.388;12.128;2023-02-28T01:12:46;2.87;;;2.27;;
15889;SDS011;8043;49.388;12.128;2023-02-28T01:17:49;3.50;;;1.97;;
15889;SDS011;8043;49.388;12.128;2023-02-28T01:22:51;4.97;;;2.00;;
15889;SDS011;8043;49.388;12.128;2023-02-28T01:27:53;1.57;;;1.17;;
15889;SDS011;8043;49.388;12.128;2023-02-28T01:32:55;0.90;;;0.90;;
15889;SDS011;8043;49.388;12.128;2023-02-28T01:37:57;1.20;;;1.10;;
15889;SDS011;8043;49.388;12.128;2023-02-28T01:42:59;1.37;;;1.27;;
15889;SDS011;8043;49.388;12.128;2023-02-28T01:48:02;1.90;;;1.47;;
15889;SDS011;8043;49.388;12.128;2023-02-28T01:53:07;1.67;;;1.57;;
15889;SDS011;8043;49.388;12.128;2023-02-28T01:58:12;2.33;;;1.30;;
15889;SDS011;8043;49.388;12.128;2023-02-28T02:03:14;3.53;;;2.23;;
15889;SDS011;8043;49.388;12.128;2023-02-28T02:08:25;1.83;;;1.73;;
15889;SDS011;8043;49.388;12.128;2023-02-28T02:13:33;1.80;;;1.12;;
15889;SDS011;8043;49.388;12.128;2023-02-28T02:18:47;2.30;;;1.63;;
15889;SDS011;8043;49.388;12.128;2023-02-28T02:24:11;1.93;;;1.50;;
15889;SDS011;8043;49.388;12.128;2023-02-28T02:34:27;2.23;;;1.33;;
15889;SDS011;8043;49.388;12.128;2023-02-28T02:39:35;4.40;;;1.70;;
15889;SDS011;8043;49.388;12.128;2023-02-28T02:44:40;2.00;;;1.67;;
15889;SDS011;8043;49.388;12.128;2023-02-28T02:49:51;2.20;;;1.77;;
15889;SDS011;8043;49.388;12.128;2023-02-28T02:54:55;2.17;;;1.83;;
15889;SDS011;8043;49.388;12.128;2023-02-28T02:59:58;1.30;;;1.30;;
15889;SDS011;8043;49.388;12.128;2023-02-28T03:05:04;1.93;;;1.73;;
15889;SDS011;8043;49.388;12.128;2023-02-28T03:10:26;1.70;;;1.60;;
15889;SDS011;8043;49.388;12.128;2023-02-28T03:15:32;2.17;;;1.73;;
15889;SDS011;8043;49.388;12.128;2023-02-28T03:20:45;1.87;;;1.43;;
15889;SDS011;8043;49.388;12.128;2023-02-28T03:26:06;2.20;;;1.40;;
15889;SDS011;8043;49.388;12.128;2023-02-28T03:31:15;1.20;;;1.20;;
15889;SDS011;8043;49.388;12.128;2023-02-28T03:36:30;2.37;;;1.67;;
15889;SDS011;8043;49.388;12.128;2023-02-28T03:46:54;3.20;;;1.93;;
15889;SDS011;8043;49.388;12.128;2023-02-28T03:52:10;2.10;;;1.50;;
15889;SDS011;8043;49.388;12.128;2023-02-28T04:02:44;1.60;;;1.47;;
15889;SDS011;8043;49.388;12.128;2023-02-28T04:07:46;2.77;;;2.30;;
15889;SDS011;8043;49.388;12.128;2023-02-28T04:12:48;2.90;;;1.93;;
15889;SDS011;8043;49.388;12.128;2023-02-28T04:17:51;3.90;;;2.50;;
15889;SDS011;8043;49.388;12.128;2023-02-28T04:22:53;1.60;;;1.50;;
15889;SDS011;8043;49.388;12.128;2023-02-28T04:27:55;2.10;;;1.93;;
15889;SDS011;8043;49.388;12.128;2023-02-28T04:32:57;1.63;;;1.47;;
15889;SDS011;8043;49.388;12.128;2023-02-28T04:38:00;5.47;;;1.90;;
15889;SDS011;8043;49.388;12.128;2023-02-28T04:43:02;6.33;;;2.53;;
15889;SDS011;8043;49.388;12.128;2023-02-28T04:48:04;3.33;;;2.80;;
15889;SDS011;8043;49.388;12.128;2023-02-28T04:53:06;2.33;;;1.90;;
15889;SDS011;8043;49.388;12.128;2023-02-28T04:58:08;3.87;;;2.27;;
15889;SDS011;8043;49.388;12.128;2023-02-28T05:03:11;2.17;;;1.93;;
15889;SDS011;8043;49.388;12.128;2023-02-28T05:08:13;5.43;;;3.40;;
15889;SDS011;8043;49.388;12.128;2023-02-28T05:13:15;4.77;;;2.80;;
15889;SDS011;8043;49.388;12.128;2023-02-28T05:18:17;2.60;;;2.03;;
15889;SDS011;8043;49.388;12.128;2023-02-28T05:23:20;2.53;;;2.30;;
15889;SDS011;8043;49.388;12.128;2023-02-28T05:28:24;3.93;;;3.13;;
15889;SDS011;8043;49.388;12.128;2023-02-28T05:33:26;5.93;;;1.97;;
15889;SDS011;8043;49.388;12.128;2023-02-28T05:38:28;6.37;;;2.97;;
15889;SDS011;8043;49.388;12.128;2023-02-28T05:43:30;3.43;;;2.00;;
15889;SDS011;8043;49.388;12.128;2023-02-28T05:48:33;4.57;;;2.87;;
15889;SDS011;8043;49.388;12.128;2023-02-28T05:53:36;2.63;;;2.23;;
15889;SDS011;8043;49.388;12.128;2023-02-28T05:58:38;3.10;;;2.80;;
15889;SDS011;8043;49.388;12.128;2023-02-28T06:03:40;3.95;;;2.83;;
15889;SDS011;8043;49.388;12.128;2023-02-28T06:08:43;4.13;;;2.17;;
15889;SDS011;8043;49.388;12.128;2023-02-28T06:13:47;1.70;;;1.60;;
15889;SDS011;8043;49.388;12.128;2023-02-28T06:18:49;4.47;;;2.20;;
15889;SDS011;8043;49.388;12.128;2023-02-28T06:23:53;5.62;;;2.98;;
15889;SDS011;8043;49.388;12.128;2023-02-28T06:28:55;2.13;;;1.97;;
15889;SDS011;8043;49.388;12.128;2023-02-28T06:33:58;1.83;;;1.73;;
15889;SDS011;8043;49.388;12.128;2023-02-28T06:39:00;3.43;;;2.73;;
15889;SDS011;8043;49.388;12.128;2023-02-28T06:44:03;3.60;;;1.93;;
15889;SDS011;8043;49.388;12.128;2023-02-28T06:49:06;4.50;;;1.97;;
15889;SDS011;8043;49.388;12.128;2023-02-28T06:54:11;4.17;;;2.57;;
15889;SDS011;8043;49.388;12.128;2023-02-28T06:59:14;4.40;;;3.07;;
15889;SDS011;8043;49.388;12.128;2023-02-28T07:04:16;6.37;;;3.40;;
15889;SDS011;8043;49.388;12.128;2023-02-28T07:09:18;4.63;;;3.07;;
15889;SDS011;8043;49.388;12.128;2023-02-28T07:14:20;5.37;;;2.00;;
15889;SDS011;8043;49.388;12.128;2023-02-28T07:19:23;8.20;;;3.33;;
15889;SDS011;8043;49.388;12.128;2023-02-28T07:24:25;4.87;;;3.10;;
15889;SDS011;8043;49.388;12.128;2023-02-28T07:29:28;2.27;;;2.07;;
15889;SDS011;8043;49.388;12.128;2023-02-28T07:34:33;6.10;;;2.57;;
15889;SDS011;8043;49.388;12.128;2023-02-28T07:39:34;3.37;;;2.70;;
15889;SDS011;8043;49.388;12.128;2023-02-28T07:44:37;8.17;;;2.87;;
15889;SDS011;8043;49.388;12.128;2023-02-28T07:49:43;3.85;;;2.87;;
15889;SDS011;8043;49.388;12.128;2023-02-28T07:54:46;5.57;;;3.20;;
15889;SDS011;8043;49.388;12.128;2023-02-28T07:59:48;5.17;;;3.13;;
15889;SDS011;8043;49.388;12.128;2023-02-28T08:04:50;3.50;;;2.57;;
15889;SDS011;8043;49.388;12.128;2023-02-28T08:09:52;6.70;;;3.73;;
15889;SDS011;8043;49.388;12.128;2023-02-28T08:14:54;4.12;;;2.67;;
15889;SDS011;8043;49.388;12.128;2023-02-28T08:19:57;5.87;;;3.67;;
15889;SDS011;8043;49.388;12.128;2023-02-28T08:24:59;6.73;;;2.40;;
15889;SDS011;8043;49.388;12.128;2023-02-28T08:30:01;6.37;;;2.50;;
15889;SDS011;8043;49.388;12.128;2023-02-28T08:35:04;6.47;;;3.83;;
15889;SDS011;8043;49.388;12.128;2023-02-28T08:40:07;5.73;;;2.73;;
15889;SDS011;8043;49.388;12.128;2023-02-28T08:45:11;4.93;;;3.50;;
15889;SDS011;8043;49.388;12.128;2023-02-28T08:50:13;8.73;;;4.03;;
15889;SDS011;8043;49.388;12.128;2023-02-28T08:55:17;3.57;;;2.73;;
15889;SDS011;8043;49.388;12.128;2023-02-28T09:00:19;9.23;;;4.07;;
15889;SDS011;8043;49.388;12.128;2023-02-28T09:05:22;4.07;;;2.47;;
15889;SDS011;8043;49.388;12.128;2023-02-28T09:10:24;5.27;;;3.43;;
15889;SDS011;8043;49.388;12.128;2023-02-28T09:15:26;4.33;;;2.43;;
15889;SDS011;8043;49.388;12.128;2023-02-28T09:20:29;6.97;;;3.37;;
15889;SDS011;8043;49.388;12.128;2023-02-28T09:25:31;6.43;;;2.80;;
15889;SDS011;8043;49.388;12.128;2023-02-28T09:30:33;5.33;;;3.43;;
15889;SDS011;8043;49.388;12.128;2023-02-28T09:35:35;9.07;;;3.70;;
15889;SDS011;8043;49.388;12.128;2023-02-28T09:40:48;4.80;;;3.33;;
15889;SDS011;8043;49.388;12.128;2023-02-28T09:46:11;4.93;;;2.93;;
15889;SDS011;8043;49.388;12.128;2023-02-28T09:51:40;8.00;;;3.73;;
15889;SDS011;8043;49.388;12.128;2023-02-28T09:56:54;7.43;;;3.60;;
15889;SDS011;8043;49.388;12.128;2023-02-28T10:12:36;6.60;;;3.20;;
15889;SDS011;8043;49.388;12.128;2023-02-28T10:17:41;10.10;;;4.30;;
15889;SDS011;8043;49.388;12.128;2023-02-28T10:27:58;5.40;;;3.37;;
15889;SDS011;8043;49.388;12.128;2023-02-28T10:33:02;6.97;;;3.73;;
15889;SDS011;8043;49.388;12.128;2023-02-28T10:38:05;9.10;;;3.73;;
15889;SDS011;8043;49.388;12.128;2023-02-28T11:03:51;6.50;;;3.80;;
15889;SDS011;8043;49.388;12.128;2023-02-28T11:08:54;10.40;;;4.60;;
15889;SDS011;8043;49.388;12.128;2023-02-28T11:14:03;10.60;;;4.63;;
15889;SDS011;8043;49.388;12.128;2023-02-28T11:19:06;8.60;;;4.30;;
15889;SDS011;8043;49.388;12.128;2023-02-28T11:29:32;7.03;;;4.47;;
15889;SDS011;8043;49.388;12.128;2023-02-28T11:34:37;7.97;;;4.23;;
15889;SDS011;8043;49.388;12.128;2023-02-28T11:39:40;9.50;;;4.10;;
15889;SDS011;8043;49.388;12.128;2023-02-28T11:50:22;9.17;;;4.83;;
15889;SDS011;8043;49.388;12.128;2023-02-28T11:55:35;10.77;;;6.00;;
15889;SDS011;8043;49.388;12.128;2023-02-28T12:00:43;8.40;;;4.63;;
15889;SDS011;8043;49.388;12.128;2023-02-28T12:06:10;10.47;;;5.90;;
15889;SDS011;8043;49.388;12.128;2023-02-28T12:11:29;10.33;;;5.53;;
15889;SDS011;8043;49.388;12.128;2023-02-28T12:26:57;10.33;;;5.03;;
15889;SDS011;8043;49.388;12.128;2023-02-28T12:32:06;10.00;;;6.43;;
15889;SDS011;8043;49.388;12.128;2023-02-28T12:37:21;9.63;;;5.50;;
15889;SDS011;8043;49.388;12.128;2023-02-28T12:42:30;11.77;;;5.40;;
15889;SDS011;8043;49.388;12.128;2023-02-28T12:47:29;11.63;;;5.90;;
15889;SDS011;8043;49.388;12.128;2023-02-28T12:52:43;11.37;;;6.23;;
15889;SDS011;8043;49.388;12.128;2023-02-28T12:58:04;14.30;;;6.10;;
15889;SDS011;8043;49.388;12.128;2023-02-28T13:03:30;12.33;;;6.97;;
15889;SDS011;8043;49.388;12.128;2023-02-28T13:13:45;9.83;;;5.97;;
15889;SDS011;8043;49.388;12.128;2023-02-28T13:18:50;7.73;;;4.43;;
15889;SDS011;8043;49.388;12.128;2023-02-28T13:29:00;10.57;;;5.03;;
15889;SDS011;8043;49.388;12.128;2023-02-28T13:34:14;10.13;;;5.10;;
15889;SDS011;8043;49.388;12.128;2023-02-28T13:50:27;11.30;;;5.63;;
15889;SDS011;8043;49.388;12.128;2023-02-28T14:01:05;10.83;;;5.00;;
15889;SDS011;8043;49.388;12.128;2023-02-28T14:06:16;11.33;;;6.13;;
15889;SDS011;8043;49.388;12.128;2023-02-28T14:11:24;7.57;;;4.63;;
15889;SDS011;8043;49.388;12.128;2023-02-28T14:16:36;8.80;;;5.73;;
15889;SDS011;8043;49.388;12.128;2023-02-28T14:21:48;10.60;;;5.80;;
15889;SDS011;8043;49.388;12.128;2023-02-28T14:27:11;11.90;;;6.00;;
15889;SDS011;8043;49.388;12.128;2023-02-28T14:32:28;15.03;;;6.60;;
15889;SDS011;8043;49.388;12.128;2023-02-28T14:37:48;10.93;;;6.43;;
15889;SDS011;8043;49.388;12.128;2023-02-28T14:42:58;10.60;;;5.97;;
15889;SDS011;8043;49.388;12.128;2023-02-28T14:48:02;10.97;;;5.80;;
15889;SDS011;8043;49.388;12.128;2023-02-28T14:53:09;10.33;;;5.33;;
15889;SDS011;8043;49.388;12.128;2023-02-28T14:58:28;9.00;;;4.60;;
15889;SDS011;8043;49.388;12.128;2023-02-28T15:03:33;7.40;;;4.83;;
15889;SDS011;8043;49.388;12.128;2023-02-28T15:08:36;9.97;;;4.43;;
15889;SDS011;8043;49.388;12.128;2023-02-28T15:13:42;9.17;;;5.27;;
15889;SDS011;8043;49.388;12.128;2023-02-28T15:18:54;10.07;;;4.97;;
15889;SDS011;8043;49.388;12.128;2023-02-28T15:24:07;10.17;;;4.97;;
15889;SDS011;8043;49.388;12.128;2023-02-28T15:29:27;13.33;;;5.03;;
15889;SDS011;8043;49.388;12.128;2023-02-28T15:34:37;10.37;;;4.60;;
15889;SDS011;8043;49.388;12.128;2023-02-28T15:39:41;10.10;;;5.20;;
15889;SDS011;8043;49.388;12.128;2023-02-28T15:44:44;14.60;;;8.43;;
15889;SDS011;8043;49.388;12.128;2023-02-28T15:49:50;13.30;;;6.97;;
15889;SDS011;8043;49.388;12.128;2023-02-28T15:55:26;12.13;;;6.20;;
15889;SDS011;8043;49.388;12.128;2023-02-28T16:00:14;10.37;;;5.17;;
15889;SDS011;8043;49.388;12.128;2023-02-28T16:05:21;8.03;;;4.73;;
15889;SDS011;8043;49.388;12.128;2023-02-28T16:10:31;9.00;;;4.47;;
15889;SDS011;8043;49.388;12.128;2023-02-28T16:15:35;10.73;;;5.40;;
15889;SDS011;8043;49.388;12.128;2023-02-28T16:20:42;13.03;;;5.67;;
15889;SDS011;8043;49.388;12.128;2023-02-28T16:25:45;9.50;;;5.10;;
15889;SDS011;8043;49.388;12.128;2023-02-28T16:30:47;8.97;;;4.90;;
15889;SDS011;8043;49.388;12.128;2023-02-28T16:35:49;9.70;;;4.53;;
15889;SDS011;8043;49.388;12.128;2023-02-28T16:40:52;11.20;;;5.63;;
15889;SDS011;8043;49.388;12.128;2023-02-28T16:45:56;13.33;;;6.13;;
15889;SDS011;8043;49.388;12.128;2023-02-28T16:50:59;10.47;;;4.70;;
15889;SDS011;8043;49.388;12.128;2023-02-28T16:56:03;16.23;;;5.57;;
15889;SDS011;8043;49.388;12.128;2023-02-28T17:01:07;12.90;;;5.50;;
15889;SDS011;8043;49.388;12.128;2023-02-28T17:11:29;8.03;;;4.63;;
15889;SDS011;8043;49.388;12.128;2023-02-28T17:16:33;12.00;;;6.30;;
15889;SDS011;8043;49.388;12.128;2023-02-28T17:21:37;10.77;;;6.60;;
15889;SDS011;8043;49.388;12.128;2023-02-28T17:26:41;12.93;;;5.57;;
15889;SDS011;8043;49.388;12.128;2023-02-28T17:31:43;9.43;;;5.13;;
15889;SDS011;8043;49.388;12.128;2023-02-28T17:36:46;12.13;;;5.60;;
15889;SDS011;8043;49.388;12.128;2023-02-28T17:41:52;13.80;;;7.57;;
15889;SDS011;8043;49.388;12.128;2023-02-28T17:46:56;12.67;;;5.93;;
15889;SDS011;8043;49.388;12.128;2023-02-28T17:51:58;12.60;;;6.13;;
15889;SDS011;8043;49.388;12.128;2023-02-28T17:57:00;12.73;;;9.10;;
15889;SDS011;8043;49.388;12.128;2023-02-28T18:02:02;13.90;;;7.50;;
15889;SDS011;8043;49.388;12.128;2023-02-28T18:07:09;12.83;;;6.27;;
15889;SDS011;8043;49.388;12.128;2023-02-28T18:12:12;17.03;;;7.40;;
15889;SDS011;8043;49.388;12.128;2023-02-28T18:17:14;11.40;;;6.97;;
15889;SDS011;8043;49.388;12.128;2023-02-28T18:22:16;12.33;;;5.83;;
15889;SDS011;8043;49.388;12.128;2023-02-28T18:27:18;11.67;;;7.63;;
15889;SDS011;8043;49.388;12.128;2023-02-28T18:32:20;26.23;;;12.73;;
15889;SDS011;8043;49.388;12.128;2023-02-28T18:37:23;30.47;;;14.03;;
15889;SDS011;8043;49.388;12.128;2023-02-28T18:42:25;12.77;;;8.03;;
15889;SDS011;8043;49.388;12.128;2023-02-28T18:47:27;22.77;;;11.97;;
15889;SDS011;8043;49.388;12.128;2023-02-28T18:52:29;13.63;;;7.60;;
15889;SDS011;8043;49.388;12.128;2023-02-28T18:57:32;11.03;;;5.77;;
15889;SDS011;8043;49.388;12.128;2023-02-28T19:02:35;10.50;;;5.03;;
15889;SDS011;8043;49.388;12.128;2023-02-28T19:07:37;8.57;;;4.20;;
15889;SDS011;8043;49.388;12.128;2023-02-28T19:12:40;7.83;;;4.50;;
15889;SDS011;8043;49.388;12.128;2023-02-28T19:17:43;13.20;;;5.50;;
15889;SDS011;8043;49.388;12.128;2023-02-28T19:22:45;10.73;;;5.67;;
15889;SDS011;8043;49.388;12.128;2023-02-28T19:27:50;8.60;;;4.63;;
15889;SDS011;8043;49.388;12.128;2023-02-28T19:32:56;21.43;;;7.07;;
15889;SDS011;8043;49.388;12.128;2023-02-28T19:37:58;12.67;;;7.23;;
15889;SDS011;8043;49.388;12.128;2023-02-28T19:43:00;7.33;;;4.67;;
15889;SDS011;8043;49.388;12.128;2023-02-28T19:48:03;9.93;;;4.70;;
15889;SDS011;8043;49.388;12.128;2023-02-28T19:53:06;8.77;;;5.30;;
15889;SDS011;8043;49.388;12.128;2023-02-28T19:58:08;10.73;;;5.70;;
15889;SDS011;8043;49.388;12.128;2023-02-28T20:03:10;15.50;;;8.03;;
15889;SDS011;8043;49.388;12.128;2023-02-28T20:08:13;10.40;;;4.90;;
15889;SDS011;8043;49.388;12.128;2023-02-28T20:13:15;7.67;;;4.83;;
15889;SDS011;8043;49.388;12.128;2023-02-28T20:18:17;13.53;;;5.20;;
15889;SDS011;8043;49.388;12.128;2023-02-28T20:23:19;7.17;;;4.90;;
15889;SDS011;8043;49.388;12.128;2023-02-28T20:28:22;14.73;;;6.13;;
15889;SDS011;8043;49.388;12.128;2023-02-28T20:33:24;11.03;;;5.30;;
15889;SDS011;8043;49.388;12.128;2023-02-28T20:38:26;9.43;;;4.93;;
15889;SDS011;8043;49.388;12.128;2023-02-28T20:43:28;7.93;;;4.13;;
15889;SDS011;8043;49.388;12.128;2023-02-28T20:48:31;11.93;;;5.03;;
15889;SDS011;8043;49.388;12.128;2023-02-28T20:53:36;9.83;;;5.23;;
15889;SDS011;8043;49.388;12.128;2023-02-28T20:58:38;10.20;;;4.80;;
15889;SDS011;8043;49.388;12.128;2023-02-28T21:03:41;8.43;;;3.63;;
15889;SDS011;8043;49.388;12.128;2023-02-28T21:08:44;6.23;;;4.07;;
15889;SDS011;8043;49.388;12.128;2023-02-28T21:13:46;7.60;;;4.73;;
15889;SDS011;8043;49.388;12.128;2023-02-28T21:18:48;7.17;;;4.07;;
15889;SDS011;8043;49.388;12.128;2023-02-28T21:23:52;11.00;;;4.53;;
15889;SDS011;8043;49.388;12.128;2023-02-28T21:28:56;9.03;;;3.87;;
15889;SDS011;8043;49.388;12.128;2023-02-28T21:34:00;11.10;;;6.63;;
15889;SDS011;8043;49.388;12.128;2023-02-28T21:39:12;8.43;;;4.40;;
15889;SDS011;8043;49.388;12.128;2023-02-28T21:44:09;10.57;;;4.10;;
15889;SDS011;8043;49.388;12.128;2023-02-28T21:49:17;7.63;;;3.90;;
15889;SDS011;8043;49.388;12.128;2023-02-28T21:54:19;6.53;;;3.13;;
15889;SDS011;8043;49.388;12.128;2023-02-28T21:59:21;8.87;;;4.47;;
15889;SDS011;8043;49.388;12.128;2023-02-28T22:04:24;6.10;;;3.60;;
15889;SDS011;8043;49.388;12.128;2023-02-28T22:09:26;4.20;;;2.37;;
15889;SDS011;8043;49.388;12.128;2023-02-28T22:14:29;5.40;;;3.17;;
15889;SDS011;8043;49.388;12.128;2023-02-28T22:19:31;4.67;;;3.73;;
15889;SDS011;8043;49.388;12.128;2023-02-28T22:24:35;7.70;;;3.70;;
15889;SDS011;8043;49.388;12.128;2023-02-28T22:29:37;7.07;;;4.20;;
15889;SDS011;8043;49.388;12.128;2023-02-28T22:34:39;9.73;;;5.10;;
15889;SDS011;8043;49.388;12.128;2023-02-28T22:39:41;8.83;;;5.17;;
15889;SDS011;8043;49.388;12.128;2023-02-28T22:44:45;7.77;;;3.97;;
15889;SDS011;8043;49.388;12.128;2023-02-28T22:49:51;9.73;;;5.03;;
15889;SDS011;8043;49.388;12.128;2023-02-28T22:54:53;7.57;;;4.53;;
15889;SDS011;8043;49.388;12.128;2023-02-28T22:59:55;8.27;;;4.53;;
15889;SDS011;8043;49.388;12.128;2023-02-28T23:04:57;7.53;;;4.20;;
15889;SDS011;8043;49.388;12.128;2023-02-28T23:10:02;7.00;;;4.13;;
15889;SDS011;8043;49.388;12.128;2023-02-28T23:15:09;7.33;;;4.23;;
15889;SDS011;8043;49.388;12.128;2023-02-28T23:20:12;7.97;;;3.98;;
15889;SDS011;8043;49.388;12.128;2023-02-28T23:25:19;9.17;;;5.17;;
15889;SDS011;8043;49.388;12.128;2023-02-28T23:30:21;11.20;;;4.33;;
15889;SDS011;8043;49.388;12.128;2023-02-28T23:35:24;8.10;;;4.33;;
15889;SDS011;8043;49.388;12.128;2023-02-28T23:40:26;5.40;;;3.10;;
15889;SDS011;8043;49.388;12.128;2023-02-28T23:45:28;7.83;;;4.73;;
15889;SDS011;8043;49.388;12.128;2023-02-28T23:50:31;5.97;;;3.77;;
15889;SDS011;8043;49.388;12.128;2023-02-28T23:55:34;6.03;;;3.43;;
